sensor_id;sensor_type;location;lat;lon;timestamp;P1;durP1;ratioP1;P2;durP2;ratioP2
55090;SDS011;40985;53.180;5.800;2022-08-01T00:00:37;3.33;;;2.67;;
55090;SDS011;40985;53.180;5.800;2022-08-01T00:03:02;4.15;;;2.90;;
55090;SDS011;40985;53.180;5.800;2022-08-01T00:05:28;2.88;;;2.58;;
55090;SDS011;40985;53.180;5.800;2022-08-01T00:07:54;4.43;;;3.10;;
55090;SDS011;40985;53.180;5.800;2022-08-01T00:10:20;6.28;;;4.35;;
55090;SDS011;40985;53.180;5.800;2022-08-01T00:12:45;5.75;;;3.83;;
55090;SDS011;40985;53.180;5.800;2022-08-01T00:15:12;7.90;;;3.42;;
55090;SDS011;40985;53.180;5.800;2022-08-01T00:17:40;6.45;;;4.10;;
55090;SDS011;40985;53.180;5.800;2022-08-01T00:20:07;5.97;;;3.83;;
55090;SDS011;40985;53.180;5.800;2022-08-01T00:22:35;8.35;;;3.00;;
55090;SDS011;40985;53.180;5.800;2022-08-01T00:25:00;7.28;;;3.13;;
55090;SDS011;40985;53.180;5.800;2022-08-01T00:27:27;8.50;;;3.17;;
55090;SDS011;40985;53.180;5.800;2022-08-01T00:29:52;5.00;;;3.05;;
55090;SDS011;40985;53.180;5.800;2022-08-01T00:32:18;6.65;;;3.47;;
55090;SDS011;40985;53.180;5.800;2022-08-01T00:34:44;5.85;;;3.28;;
55090;SDS011;40985;53.180;5.800;2022-08-01T00:37:10;5.50;;;3.75;;
55090;SDS011;40985;53.180;5.800;2022-08-01T00:39:35;7.93;;;3.30;;
55090;SDS011;40985;53.180;5.800;2022-08-01T00:42:09;10.43;;;3.70;;
55090;SDS011;40985;53.180;5.800;2022-08-01T00:44:36;8.90;;;3.53;;
55090;SDS011;40985;53.180;5.800;2022-08-01T00:47:02;7.20;;;3.03;;
55090;SDS011;40985;53.180;5.800;2022-08-01T00:49:28;3.25;;;2.10;;
55090;SDS011;40985;53.180;5.800;2022-08-01T00:51:54;6.35;;;2.53;;
55090;SDS011;40985;53.180;5.800;2022-08-01T00:54:21;5.10;;;2.35;;
55090;SDS011;40985;53.180;5.800;2022-08-01T00:56:48;8.30;;;2.65;;
55090;SDS011;40985;53.180;5.800;2022-08-01T00:59:14;4.95;;;2.58;;
55090;SDS011;40985;53.180;5.800;2022-08-01T01:01:42;3.63;;;1.92;;
55090;SDS011;40985;53.180;5.800;2022-08-01T01:04:09;4.55;;;2.17;;
55090;SDS011;40985;53.180;5.800;2022-08-01T01:20:21;4.60;;;1.05;;
55090;SDS011;40985;53.180;5.800;2022-08-01T01:28:16;5.13;;;1.13;;
55090;SDS011;40985;53.180;5.800;2022-08-01T01:30:57;5.45;;;1.02;;
55090;SDS011;40985;53.180;5.800;2022-08-01T01:33:25;11.57;;;1.80;;
55090;SDS011;40985;53.180;5.800;2022-08-01T01:36:01;10.45;;;1.92;;
55090;SDS011;40985;53.180;5.800;2022-08-01T01:38:34;12.00;;;1.65;;
55090;SDS011;40985;53.180;5.800;2022-08-01T01:41:07;7.75;;;1.48;;
55090;SDS011;40985;53.180;5.800;2022-08-01T01:43:33;8.68;;;1.60;;
55090;SDS011;40985;53.180;5.800;2022-08-01T01:46:02;9.50;;;1.40;;
55090;SDS011;40985;53.180;5.800;2022-08-01T01:48:29;7.57;;;1.63;;
55090;SDS011;40985;53.180;5.800;2022-08-01T01:50:57;13.27;;;1.92;;
55090;SDS011;40985;53.180;5.800;2022-08-01T01:53:25;12.88;;;2.28;;
55090;SDS011;40985;53.180;5.800;2022-08-01T01:55:53;10.10;;;1.65;;
55090;SDS011;40985;53.180;5.800;2022-08-01T01:58:22;16.20;;;1.90;;
55090;SDS011;40985;53.180;5.800;2022-08-01T02:00:49;12.45;;;2.00;;
55090;SDS011;40985;53.180;5.800;2022-08-01T02:03:17;14.38;;;3.10;;
55090;SDS011;40985;53.180;5.800;2022-08-01T02:05:44;13.00;;;2.40;;
55090;SDS011;40985;53.180;5.800;2022-08-01T02:08:13;19.55;;;2.80;;
55090;SDS011;40985;53.180;5.800;2022-08-01T02:10:40;13.25;;;2.03;;
55090;SDS011;40985;53.180;5.800;2022-08-01T02:13:26;14.65;;;2.40;;
55090;SDS011;40985;53.180;5.800;2022-08-01T02:15:53;14.73;;;3.05;;
55090;SDS011;40985;53.180;5.800;2022-08-01T02:18:19;17.38;;;3.25;;
55090;SDS011;40985;53.180;5.800;2022-08-01T02:20:45;16.50;;;3.08;;
55090;SDS011;40985;53.180;5.800;2022-08-01T02:23:11;12.10;;;2.63;;
55090;SDS011;40985;53.180;5.800;2022-08-01T02:25:39;10.43;;;2.30;;
55090;SDS011;40985;53.180;5.800;2022-08-01T02:30:42;11.32;;;1.48;;
55090;SDS011;40985;53.180;5.800;2022-08-01T02:33:14;8.75;;;2.30;;
55090;SDS011;40985;53.180;5.800;2022-08-01T02:35:47;12.40;;;1.90;;
55090;SDS011;40985;53.180;5.800;2022-08-01T02:38:15;13.52;;;2.55;;
55090;SDS011;40985;53.180;5.800;2022-08-01T02:40:43;11.73;;;2.13;;
55090;SDS011;40985;53.180;5.800;2022-08-01T02:43:12;9.07;;;1.85;;
55090;SDS011;40985;53.180;5.800;2022-08-01T02:45:42;7.13;;;2.10;;
55090;SDS011;40985;53.180;5.800;2022-08-01T02:48:13;10.63;;;2.35;;
55090;SDS011;40985;53.180;5.800;2022-08-01T02:50:42;8.93;;;1.85;;
55090;SDS011;40985;53.180;5.800;2022-08-01T02:53:10;9.35;;;1.92;;
55090;SDS011;40985;53.180;5.800;2022-08-01T02:55:38;11.85;;;1.55;;
55090;SDS011;40985;53.180;5.800;2022-08-01T02:58:06;11.35;;;3.00;;
55090;SDS011;40985;53.180;5.800;2022-08-01T03:00:34;12.77;;;1.90;;
55090;SDS011;40985;53.180;5.800;2022-08-01T03:03:01;8.40;;;1.60;;
55090;SDS011;40985;53.180;5.800;2022-08-01T03:05:29;10.35;;;2.00;;
55090;SDS011;40985;53.180;5.800;2022-08-01T03:07:57;8.38;;;2.03;;
55090;SDS011;40985;53.180;5.800;2022-08-01T03:10:26;11.05;;;1.85;;
55090;SDS011;40985;53.180;5.800;2022-08-01T03:12:53;13.27;;;1.92;;
55090;SDS011;40985;53.180;5.800;2022-08-01T03:15:19;12.73;;;1.55;;
55090;SDS011;40985;53.180;5.800;2022-08-01T03:17:50;14.43;;;2.67;;
55090;SDS011;40985;53.180;5.800;2022-08-01T03:20:17;11.45;;;2.25;;
55090;SDS011;40985;53.180;5.800;2022-08-01T03:22:45;11.20;;;1.65;;
55090;SDS011;40985;53.180;5.800;2022-08-01T03:25:12;7.97;;;1.60;;
55090;SDS011;40985;53.180;5.800;2022-08-01T03:27:40;12.68;;;2.70;;
55090;SDS011;40985;53.180;5.800;2022-08-01T03:30:08;10.77;;;1.70;;
55090;SDS011;40985;53.180;5.800;2022-08-01T03:32:35;10.95;;;2.15;;
55090;SDS011;40985;53.180;5.800;2022-08-01T03:35:01;8.38;;;1.55;;
55090;SDS011;40985;53.180;5.800;2022-08-01T03:37:28;15.52;;;2.35;;
55090;SDS011;40985;53.180;5.800;2022-08-01T03:40:00;13.20;;;1.55;;
55090;SDS011;40985;53.180;5.800;2022-08-01T03:42:29;12.93;;;1.40;;
55090;SDS011;40985;53.180;5.800;2022-08-01T03:44:59;14.60;;;1.80;;
55090;SDS011;40985;53.180;5.800;2022-08-01T03:47:34;11.20;;;1.60;;
55090;SDS011;40985;53.180;5.800;2022-08-01T03:50:01;15.70;;;1.42;;
55090;SDS011;40985;53.180;5.800;2022-08-01T03:52:29;17.63;;;1.90;;
55090;SDS011;40985;53.180;5.800;2022-08-01T03:54:58;10.88;;;1.10;;
55090;SDS011;40985;53.180;5.800;2022-08-01T03:57:27;12.93;;;1.13;;
55090;SDS011;40985;53.180;5.800;2022-08-01T03:59:55;10.02;;;1.20;;
55090;SDS011;40985;53.180;5.800;2022-08-01T04:02:22;14.02;;;1.25;;
55090;SDS011;40985;53.180;5.800;2022-08-01T04:04:48;16.17;;;1.75;;
55090;SDS011;40985;53.180;5.800;2022-08-01T04:07:25;9.82;;;0.82;;
55090;SDS011;40985;53.180;5.800;2022-08-01T04:09:52;13.95;;;1.42;;
55090;SDS011;40985;53.180;5.800;2022-08-01T04:12:18;11.25;;;1.50;;
55090;SDS011;40985;53.180;5.800;2022-08-01T04:14:44;14.48;;;1.52;;
55090;SDS011;40985;53.180;5.800;2022-08-01T04:17:10;16.75;;;1.98;;
55090;SDS011;40985;53.180;5.800;2022-08-01T04:19:36;13.63;;;1.08;;
55090;SDS011;40985;53.180;5.800;2022-08-01T04:22:02;12.75;;;1.40;;
55090;SDS011;40985;53.180;5.800;2022-08-01T04:24:28;10.60;;;1.25;;
55090;SDS011;40985;53.180;5.800;2022-08-01T04:26:56;15.77;;;1.00;;
55090;SDS011;40985;53.180;5.800;2022-08-01T04:29:25;11.80;;;1.40;;
55090;SDS011;40985;53.180;5.800;2022-08-01T04:31:52;12.27;;;1.17;;
55090;SDS011;40985;53.180;5.800;2022-08-01T04:34:21;15.02;;;1.50;;
55090;SDS011;40985;53.180;5.800;2022-08-01T04:36:50;18.02;;;2.92;;
55090;SDS011;40985;53.180;5.800;2022-08-01T04:39:18;8.80;;;1.00;;
55090;SDS011;40985;53.180;5.800;2022-08-01T04:41:45;15.27;;;1.63;;
55090;SDS011;40985;53.180;5.800;2022-08-01T04:44:12;12.27;;;1.77;;
55090;SDS011;40985;53.180;5.800;2022-08-01T04:46:39;13.93;;;1.63;;
55090;SDS011;40985;53.180;5.800;2022-08-01T04:49:06;17.73;;;1.20;;
55090;SDS011;40985;53.180;5.800;2022-08-01T04:51:34;9.60;;;1.52;;
55090;SDS011;40985;53.180;5.800;2022-08-01T04:54:00;9.90;;;1.13;;
55090;SDS011;40985;53.180;5.800;2022-08-01T04:56:26;16.23;;;1.98;;
55090;SDS011;40985;53.180;5.800;2022-08-01T04:58:52;10.88;;;0.90;;
55090;SDS011;40985;53.180;5.800;2022-08-01T05:01:37;13.48;;;1.33;;
55090;SDS011;40985;53.180;5.800;2022-08-01T05:04:03;15.75;;;1.17;;
55090;SDS011;40985;53.180;5.800;2022-08-01T05:06:29;16.95;;;1.77;;
55090;SDS011;40985;53.180;5.800;2022-08-01T05:08:55;14.25;;;1.08;;
55090;SDS011;40985;53.180;5.800;2022-08-01T05:11:20;12.40;;;1.73;;
55090;SDS011;40985;53.180;5.800;2022-08-01T05:13:47;18.45;;;1.70;;
55090;SDS011;40985;53.180;5.800;2022-08-01T05:16:13;16.30;;;1.25;;
55090;SDS011;40985;53.180;5.800;2022-08-01T05:18:39;20.88;;;1.98;;
55090;SDS011;40985;53.180;5.800;2022-08-01T05:21:04;15.15;;;1.20;;
55090;SDS011;40985;53.180;5.800;2022-08-01T05:23:30;16.17;;;1.70;;
55090;SDS011;40985;53.180;5.800;2022-08-01T05:25:56;14.57;;;1.55;;
55090;SDS011;40985;53.180;5.800;2022-08-01T05:28:21;9.85;;;0.75;;
55090;SDS011;40985;53.180;5.800;2022-08-01T05:30:47;15.48;;;1.75;;
55090;SDS011;40985;53.180;5.800;2022-08-01T05:33:12;15.85;;;1.63;;
55090;SDS011;40985;53.180;5.800;2022-08-01T05:35:38;19.40;;;1.25;;
55090;SDS011;40985;53.180;5.800;2022-08-01T05:38:04;21.50;;;1.80;;
55090;SDS011;40985;53.180;5.800;2022-08-01T05:40:29;16.33;;;1.10;;
55090;SDS011;40985;53.180;5.800;2022-08-01T05:42:55;14.25;;;2.03;;
55090;SDS011;40985;53.180;5.800;2022-08-01T05:45:21;13.95;;;1.52;;
55090;SDS011;40985;53.180;5.800;2022-08-01T05:47:46;14.77;;;1.60;;
55090;SDS011;40985;53.180;5.800;2022-08-01T05:50:12;13.50;;;1.92;;
55090;SDS011;40985;53.180;5.800;2022-08-01T05:52:38;17.13;;;1.25;;
55090;SDS011;40985;53.180;5.800;2022-08-01T05:55:04;10.73;;;1.15;;
55090;SDS011;40985;53.180;5.800;2022-08-01T05:57:30;15.57;;;2.10;;
55090;SDS011;40985;53.180;5.800;2022-08-01T05:59:56;12.77;;;1.50;;
55090;SDS011;40985;53.180;5.800;2022-08-01T06:02:21;14.02;;;1.20;;
55090;SDS011;40985;53.180;5.800;2022-08-01T06:04:47;12.30;;;1.10;;
55090;SDS011;40985;53.180;5.800;2022-08-01T06:07:12;13.82;;;0.85;;
55090;SDS011;40985;53.180;5.800;2022-08-01T06:09:38;17.33;;;1.73;;
55090;SDS011;40985;53.180;5.800;2022-08-01T06:12:04;12.10;;;1.25;;
55090;SDS011;40985;53.180;5.800;2022-08-01T06:14:30;13.32;;;1.27;;
55090;SDS011;40985;53.180;5.800;2022-08-01T06:16:55;16.92;;;1.20;;
55090;SDS011;40985;53.180;5.800;2022-08-01T06:19:21;15.48;;;1.20;;
55090;SDS011;40985;53.180;5.800;2022-08-01T06:21:47;8.27;;;1.00;;
55090;SDS011;40985;53.180;5.800;2022-08-01T06:24:13;9.15;;;0.98;;
55090;SDS011;40985;53.180;5.800;2022-08-01T06:26:38;8.18;;;0.75;;
55090;SDS011;40985;53.180;5.800;2022-08-01T06:29:04;10.75;;;0.88;;
55090;SDS011;40985;53.180;5.800;2022-08-01T06:31:30;9.73;;;0.60;;
55090;SDS011;40985;53.180;5.800;2022-08-01T06:33:56;13.52;;;1.90;;
55090;SDS011;40985;53.180;5.800;2022-08-01T06:36:22;9.23;;;0.77;;
55090;SDS011;40985;53.180;5.800;2022-08-01T06:38:48;13.52;;;1.02;;
55090;SDS011;40985;53.180;5.800;2022-08-01T06:41:13;14.50;;;1.17;;
55090;SDS011;40985;53.180;5.800;2022-08-01T06:43:39;12.52;;;1.00;;
55090;SDS011;40985;53.180;5.800;2022-08-01T06:46:04;12.73;;;1.08;;
55090;SDS011;40985;53.180;5.800;2022-08-01T06:48:30;14.32;;;0.60;;
55090;SDS011;40985;53.180;5.800;2022-08-01T06:50:56;9.98;;;0.70;;
55090;SDS011;40985;53.180;5.800;2022-08-01T06:53:36;13.13;;;1.30;;
55090;SDS011;40985;53.180;5.800;2022-08-01T06:56:03;12.95;;;1.17;;
55090;SDS011;40985;53.180;5.800;2022-08-01T06:58:30;8.40;;;0.68;;
55090;SDS011;40985;53.180;5.800;2022-08-01T07:00:56;15.32;;;1.10;;
55090;SDS011;40985;53.180;5.800;2022-08-01T07:03:21;13.45;;;1.35;;
55090;SDS011;40985;53.180;5.800;2022-08-01T07:05:47;12.40;;;0.70;;
55090;SDS011;40985;53.180;5.800;2022-08-01T07:08:13;13.18;;;0.80;;
55090;SDS011;40985;53.180;5.800;2022-08-01T07:10:38;8.73;;;1.23;;
55090;SDS011;40985;53.180;5.800;2022-08-01T07:13:04;13.27;;;1.25;;
55090;SDS011;40985;53.180;5.800;2022-08-01T07:15:29;9.73;;;0.60;;
55090;SDS011;40985;53.180;5.800;2022-08-01T07:17:55;13.25;;;1.00;;
55090;SDS011;40985;53.180;5.800;2022-08-01T07:20:21;7.70;;;0.50;;
55090;SDS011;40985;53.180;5.800;2022-08-01T07:22:47;4.18;;;0.52;;
55090;SDS011;40985;53.180;5.800;2022-08-01T07:25:13;8.40;;;0.85;;
55090;SDS011;40985;53.180;5.800;2022-08-01T07:27:39;12.07;;;0.85;;
55090;SDS011;40985;53.180;5.800;2022-08-01T07:30:05;3.08;;;0.38;;
55090;SDS011;40985;53.180;5.800;2022-08-01T07:32:31;9.55;;;1.42;;
55090;SDS011;40985;53.180;5.800;2022-08-01T07:34:58;8.93;;;0.50;;
55090;SDS011;40985;53.180;5.800;2022-08-01T07:37:24;8.32;;;0.70;;
55090;SDS011;40985;53.180;5.800;2022-08-01T07:39:50;9.57;;;0.95;;
55090;SDS011;40985;53.180;5.800;2022-08-01T07:42:15;9.68;;;0.75;;
55090;SDS011;40985;53.180;5.800;2022-08-01T07:44:41;10.10;;;1.27;;
55090;SDS011;40985;53.180;5.800;2022-08-01T07:47:07;10.07;;;0.90;;
55090;SDS011;40985;53.180;5.800;2022-08-01T07:49:33;5.65;;;0.30;;
55090;SDS011;40985;53.180;5.800;2022-08-01T07:51:59;6.50;;;0.60;;
55090;SDS011;40985;53.180;5.800;2022-08-01T07:54:25;11.48;;;0.43;;
55090;SDS011;40985;53.180;5.800;2022-08-01T07:56:52;9.27;;;0.47;;
55090;SDS011;40985;53.180;5.800;2022-08-01T07:59:19;5.13;;;0.60;;
55090;SDS011;40985;53.180;5.800;2022-08-01T08:01:48;9.77;;;0.63;;
55090;SDS011;40985;53.180;5.800;2022-08-01T08:04:17;14.23;;;0.55;;
55090;SDS011;40985;53.180;5.800;2022-08-01T08:06:43;8.75;;;0.73;;
55090;SDS011;40985;53.180;5.800;2022-08-01T08:09:09;7.05;;;0.80;;
55090;SDS011;40985;53.180;5.800;2022-08-01T08:11:36;7.10;;;0.52;;
55090;SDS011;40985;53.180;5.800;2022-08-01T08:14:01;9.07;;;0.63;;
55090;SDS011;40985;53.180;5.800;2022-08-01T08:16:27;10.75;;;0.80;;
55090;SDS011;40985;53.180;5.800;2022-08-01T08:18:53;6.65;;;0.60;;
55090;SDS011;40985;53.180;5.800;2022-08-01T08:21:19;7.40;;;0.47;;
55090;SDS011;40985;53.180;5.800;2022-08-01T08:23:44;6.70;;;0.38;;
55090;SDS011;40985;53.180;5.800;2022-08-01T08:26:28;6.47;;;0.30;;
55090;SDS011;40985;53.180;5.800;2022-08-01T08:28:54;5.80;;;0.90;;
55090;SDS011;40985;53.180;5.800;2022-08-01T08:31:20;7.45;;;0.30;;
55090;SDS011;40985;53.180;5.800;2022-08-01T08:33:46;8.50;;;0.70;;
55090;SDS011;40985;53.180;5.800;2022-08-01T08:36:13;6.55;;;0.60;;
55090;SDS011;40985;53.180;5.800;2022-08-01T08:38:39;4.43;;;0.40;;
55090;SDS011;40985;53.180;5.800;2022-08-01T08:41:04;20.98;;;1.02;;
55090;SDS011;40985;53.180;5.800;2022-08-01T08:43:30;7.15;;;0.45;;
55090;SDS011;40985;53.180;5.800;2022-08-01T08:45:56;10.75;;;1.00;;
55090;SDS011;40985;53.180;5.800;2022-08-01T08:48:22;5.03;;;0.40;;
55090;SDS011;40985;53.180;5.800;2022-08-01T08:50:49;10.07;;;0.50;;
55090;SDS011;40985;53.180;5.800;2022-08-01T08:53:15;7.78;;;0.70;;
55090;SDS011;40985;53.180;5.800;2022-08-01T08:55:42;8.77;;;0.40;;
55090;SDS011;40985;53.180;5.800;2022-08-01T08:58:12;6.35;;;0.30;;
55090;SDS011;40985;53.180;5.800;2022-08-01T09:00:39;6.80;;;0.50;;
55090;SDS011;40985;53.180;5.800;2022-08-01T09:03:05;7.40;;;0.50;;
55090;SDS011;40985;53.180;5.800;2022-08-01T09:05:31;7.00;;;0.65;;
55090;SDS011;40985;53.180;5.800;2022-08-01T09:07:57;8.25;;;0.32;;
55090;SDS011;40985;53.180;5.800;2022-08-01T09:10:23;7.70;;;0.38;;
55090;SDS011;40985;53.180;5.800;2022-08-01T09:13:05;9.15;;;0.40;;
55090;SDS011;40985;53.180;5.800;2022-08-01T09:15:46;8.30;;;1.05;;
55090;SDS011;40985;53.180;5.800;2022-08-01T09:23:32;5.97;;;0.60;;
55090;SDS011;40985;53.180;5.800;2022-08-01T09:25:59;5.53;;;0.30;;
55090;SDS011;40985;53.180;5.800;2022-08-01T09:28:28;5.72;;;0.30;;
55090;SDS011;40985;53.180;5.800;2022-08-01T09:30:58;6.30;;;0.75;;
55090;SDS011;40985;53.180;5.800;2022-08-01T09:33:46;6.68;;;0.50;;
55090;SDS011;40985;53.180;5.800;2022-08-01T09:36:15;5.82;;;0.98;;
55090;SDS011;40985;53.180;5.800;2022-08-01T09:38:41;4.82;;;0.55;;
55090;SDS011;40985;53.180;5.800;2022-08-01T09:41:07;6.30;;;0.57;;
55090;SDS011;40985;53.180;5.800;2022-08-01T09:43:33;4.97;;;1.13;;
55090;SDS011;40985;53.180;5.800;2022-08-01T09:45:59;8.27;;;0.30;;
55090;SDS011;40985;53.180;5.800;2022-08-01T09:48:29;5.80;;;0.52;;
55090;SDS011;40985;53.180;5.800;2022-08-01T09:50:58;6.55;;;0.25;;
55090;SDS011;40985;53.180;5.800;2022-08-01T09:53:24;4.03;;;0.43;;
55090;SDS011;40985;53.180;5.800;2022-08-01T09:55:50;5.90;;;0.85;;
55090;SDS011;40985;53.180;5.800;2022-08-01T09:58:17;6.18;;;0.30;;
55090;SDS011;40985;53.180;5.800;2022-08-01T10:00:44;4.97;;;0.43;;
55090;SDS011;40985;53.180;5.800;2022-08-01T10:03:24;5.82;;;0.40;;
55090;SDS011;40985;53.180;5.800;2022-08-01T10:05:52;4.72;;;0.40;;
55090;SDS011;40985;53.180;5.800;2022-08-01T10:08:22;6.53;;;0.50;;
55090;SDS011;40985;53.180;5.800;2022-08-01T10:11:09;5.88;;;0.43;;
55090;SDS011;40985;53.180;5.800;2022-08-01T10:13:38;5.20;;;0.52;;
55090;SDS011;40985;53.180;5.800;2022-08-01T10:16:04;5.72;;;0.40;;
55090;SDS011;40985;53.180;5.800;2022-08-01T10:18:31;5.95;;;0.95;;
55090;SDS011;40985;53.180;5.800;2022-08-01T10:20:59;4.78;;;0.30;;
55090;SDS011;40985;53.180;5.800;2022-08-01T10:23:26;4.88;;;0.22;;
55090;SDS011;40985;53.180;5.800;2022-08-01T10:25:52;6.97;;;1.05;;
55090;SDS011;40985;53.180;5.800;2022-08-01T10:28:20;3.78;;;0.30;;
55090;SDS011;40985;53.180;5.800;2022-08-01T10:30:48;6.75;;;0.73;;
55090;SDS011;40985;53.180;5.800;2022-08-01T10:33:14;4.53;;;0.80;;
55090;SDS011;40985;53.180;5.800;2022-08-01T10:35:40;4.60;;;0.30;;
55090;SDS011;40985;53.180;5.800;2022-08-01T10:38:06;5.68;;;0.40;;
55090;SDS011;40985;53.180;5.800;2022-08-01T10:40:32;4.57;;;0.43;;
55090;SDS011;40985;53.180;5.800;2022-08-01T10:42:59;3.28;;;0.20;;
55090;SDS011;40985;53.180;5.800;2022-08-01T10:45:25;3.95;;;0.40;;
55090;SDS011;40985;53.180;5.800;2022-08-01T10:48:14;4.43;;;0.30;;
55090;SDS011;40985;53.180;5.800;2022-08-01T10:50:44;5.10;;;0.30;;
55090;SDS011;40985;53.180;5.800;2022-08-01T10:53:16;6.90;;;1.33;;
55090;SDS011;40985;53.180;5.800;2022-08-01T10:55:46;4.45;;;0.25;;
55090;SDS011;40985;53.180;5.800;2022-08-01T10:58:13;4.13;;;0.38;;
55090;SDS011;40985;53.180;5.800;2022-08-01T11:00:44;5.95;;;0.30;;
55090;SDS011;40985;53.180;5.800;2022-08-01T11:03:10;6.45;;;0.20;;
55090;SDS011;40985;53.180;5.800;2022-08-01T11:05:36;3.58;;;0.35;;
55090;SDS011;40985;53.180;5.800;2022-08-01T11:08:03;4.25;;;0.20;;
55090;SDS011;40985;53.180;5.800;2022-08-01T11:10:46;4.50;;;0.30;;
55090;SDS011;40985;53.180;5.800;2022-08-01T11:13:12;3.78;;;0.30;;
55090;SDS011;40985;53.180;5.800;2022-08-01T11:15:38;2.85;;;0.40;;
55090;SDS011;40985;53.180;5.800;2022-08-01T11:20:56;8.35;;;0.20;;
55090;SDS011;40985;53.180;5.800;2022-08-01T11:23:23;3.95;;;0.20;;
55090;SDS011;40985;53.180;5.800;2022-08-01T11:30:45;2.95;;;0.20;;
55090;SDS011;40985;53.180;5.800;2022-08-01T11:33:12;4.18;;;0.50;;
55090;SDS011;40985;53.180;5.800;2022-08-01T11:38:37;5.35;;;0.30;;
55090;SDS011;40985;53.180;5.800;2022-08-01T11:41:15;3.15;;;0.20;;
55090;SDS011;40985;53.180;5.800;2022-08-01T11:46:45;3.95;;;0.30;;
55090;SDS011;40985;53.180;5.800;2022-08-01T11:51:56;1.65;;;0.43;;
55090;SDS011;40985;53.180;5.800;2022-08-01T11:54:30;3.38;;;0.20;;
55090;SDS011;40985;53.180;5.800;2022-08-01T11:56:59;3.78;;;0.30;;
55090;SDS011;40985;53.180;5.800;2022-08-01T11:59:26;2.28;;;0.15;;
55090;SDS011;40985;53.180;5.800;2022-08-01T12:01:53;2.03;;;0.20;;
55090;SDS011;40985;53.180;5.800;2022-08-01T12:04:18;1.90;;;0.20;;
55090;SDS011;40985;53.180;5.800;2022-08-01T12:06:45;4.95;;;0.35;;
55090;SDS011;40985;53.180;5.800;2022-08-01T12:09:18;2.45;;;0.20;;
55090;SDS011;40985;53.180;5.800;2022-08-01T12:11:45;3.78;;;0.22;;
55090;SDS011;40985;53.180;5.800;2022-08-01T12:14:18;2.22;;;0.20;;
55090;SDS011;40985;53.180;5.800;2022-08-01T12:16:52;3.30;;;0.20;;
55090;SDS011;40985;53.180;5.800;2022-08-01T12:19:19;3.70;;;0.20;;
55090;SDS011;40985;53.180;5.800;2022-08-01T12:22:04;5.15;;;0.30;;
55090;SDS011;40985;53.180;5.800;2022-08-01T12:24:34;2.58;;;0.20;;
55090;SDS011;40985;53.180;5.800;2022-08-01T12:27:00;4.18;;;0.30;;
55090;SDS011;40985;53.180;5.800;2022-08-01T12:32:03;3.55;;;0.47;;
55090;SDS011;40985;53.180;5.800;2022-08-01T12:34:29;4.00;;;0.38;;
55090;SDS011;40985;53.180;5.800;2022-08-01T12:36:56;3.03;;;0.55;;
55090;SDS011;40985;53.180;5.800;2022-08-01T12:39:33;7.60;;;0.57;;
55090;SDS011;40985;53.180;5.800;2022-08-01T12:41:59;2.88;;;0.17;;
55090;SDS011;40985;53.180;5.800;2022-08-01T12:44:29;4.05;;;0.30;;
55090;SDS011;40985;53.180;5.800;2022-08-01T12:46:56;1.98;;;0.20;;
55090;SDS011;40985;53.180;5.800;2022-08-01T12:49:22;2.88;;;0.40;;
55090;SDS011;40985;53.180;5.800;2022-08-01T12:51:49;5.43;;;0.65;;
55090;SDS011;40985;53.180;5.800;2022-08-01T12:54:15;4.13;;;0.20;;
55090;SDS011;40985;53.180;5.800;2022-08-01T12:56:40;3.05;;;0.30;;
55090;SDS011;40985;53.180;5.800;2022-08-01T12:59:19;3.40;;;0.35;;
55090;SDS011;40985;53.180;5.800;2022-08-01T13:01:50;5.28;;;0.30;;
55090;SDS011;40985;53.180;5.800;2022-08-01T13:04:17;5.80;;;0.20;;
55090;SDS011;40985;53.180;5.800;2022-08-01T13:06:43;1.38;;;0.20;;
55090;SDS011;40985;53.180;5.800;2022-08-01T13:09:10;6.03;;;0.45;;
55090;SDS011;40985;53.180;5.800;2022-08-01T13:11:36;4.47;;;0.30;;
55090;SDS011;40985;53.180;5.800;2022-08-01T13:14:03;3.03;;;0.20;;
55090;SDS011;40985;53.180;5.800;2022-08-01T13:16:28;7.40;;;0.55;;
55090;SDS011;40985;53.180;5.800;2022-08-01T13:18:55;6.13;;;0.47;;
55090;SDS011;40985;53.180;5.800;2022-08-01T13:21:22;2.83;;;0.22;;
55090;SDS011;40985;53.180;5.800;2022-08-01T13:24:06;4.38;;;0.50;;
55090;SDS011;40985;53.180;5.800;2022-08-01T13:29:12;8.80;;;1.17;;
55090;SDS011;40985;53.180;5.800;2022-08-01T13:31:45;3.38;;;0.50;;
55090;SDS011;40985;53.180;5.800;2022-08-01T13:34:11;4.00;;;0.38;;
55090;SDS011;40985;53.180;5.800;2022-08-01T13:36:37;3.70;;;0.20;;
55090;SDS011;40985;53.180;5.800;2022-08-01T13:39:04;5.40;;;0.20;;
55090;SDS011;40985;53.180;5.800;2022-08-01T13:41:49;3.28;;;0.20;;
55090;SDS011;40985;53.180;5.800;2022-08-01T13:44:15;5.53;;;0.65;;
55090;SDS011;40985;53.180;5.800;2022-08-01T13:46:42;2.33;;;0.30;;
55090;SDS011;40985;53.180;5.800;2022-08-01T13:49:08;3.75;;;0.30;;
55090;SDS011;40985;53.180;5.800;2022-08-01T13:51:35;3.53;;;0.22;;
55090;SDS011;40985;53.180;5.800;2022-08-01T13:54:01;4.55;;;0.20;;
55090;SDS011;40985;53.180;5.800;2022-08-01T13:56:28;4.45;;;0.32;;
55090;SDS011;40985;53.180;5.800;2022-08-01T13:58:54;4.57;;;0.43;;
55090;SDS011;40985;53.180;5.800;2022-08-01T14:01:20;4.85;;;0.40;;
55090;SDS011;40985;53.180;5.800;2022-08-01T14:03:46;4.32;;;0.30;;
55090;SDS011;40985;53.180;5.800;2022-08-01T14:06:12;2.65;;;0.30;;
55090;SDS011;40985;53.180;5.800;2022-08-01T14:08:40;3.55;;;0.20;;
55090;SDS011;40985;53.180;5.800;2022-08-01T14:11:07;3.38;;;0.22;;
55090;SDS011;40985;53.180;5.800;2022-08-01T14:13:32;2.40;;;0.20;;
55090;SDS011;40985;53.180;5.800;2022-08-01T14:15:58;1.70;;;0.20;;
55090;SDS011;40985;53.180;5.800;2022-08-01T14:18:24;3.97;;;0.20;;
55090;SDS011;40985;53.180;5.800;2022-08-01T14:20:50;3.63;;;0.30;;
55090;SDS011;40985;53.180;5.800;2022-08-01T14:23:16;4.18;;;0.40;;
55090;SDS011;40985;53.180;5.800;2022-08-01T14:25:42;3.67;;;0.28;;
55090;SDS011;40985;53.180;5.800;2022-08-01T14:28:08;5.60;;;0.55;;
55090;SDS011;40985;53.180;5.800;2022-08-01T14:30:35;5.65;;;0.20;;
55090;SDS011;40985;53.180;5.800;2022-08-01T14:33:01;2.65;;;0.20;;
55090;SDS011;40985;53.180;5.800;2022-08-01T14:35:27;3.40;;;0.30;;
55090;SDS011;40985;53.180;5.800;2022-08-01T14:37:53;2.72;;;0.38;;
55090;SDS011;40985;53.180;5.800;2022-08-01T14:40:18;2.33;;;0.30;;
55090;SDS011;40985;53.180;5.800;2022-08-01T14:42:44;2.35;;;0.43;;
55090;SDS011;40985;53.180;5.800;2022-08-01T14:45:11;2.97;;;0.40;;
55090;SDS011;40985;53.180;5.800;2022-08-01T14:47:37;9.45;;;0.30;;
55090;SDS011;40985;53.180;5.800;2022-08-01T14:50:06;2.63;;;0.20;;
55090;SDS011;40985;53.180;5.800;2022-08-01T14:52:34;2.67;;;0.30;;
55090;SDS011;40985;53.180;5.800;2022-08-01T14:55:01;1.85;;;0.25;;
55090;SDS011;40985;53.180;5.800;2022-08-01T14:57:28;1.30;;;0.20;;
55090;SDS011;40985;53.180;5.800;2022-08-01T14:59:53;4.18;;;0.25;;
55090;SDS011;40985;53.180;5.800;2022-08-01T15:02:19;2.60;;;0.20;;
55090;SDS011;40985;53.180;5.800;2022-08-01T15:04:46;2.67;;;0.40;;
55090;SDS011;40985;53.180;5.800;2022-08-01T15:07:13;2.05;;;0.20;;
55090;SDS011;40985;53.180;5.800;2022-08-01T15:09:39;2.60;;;0.20;;
55090;SDS011;40985;53.180;5.800;2022-08-01T15:12:05;4.00;;;0.20;;
55090;SDS011;40985;53.180;5.800;2022-08-01T15:14:31;4.50;;;0.40;;
55090;SDS011;40985;53.180;5.800;2022-08-01T15:17:16;3.42;;;0.70;;
55090;SDS011;40985;53.180;5.800;2022-08-01T15:19:50;4.85;;;0.30;;
55090;SDS011;40985;53.180;5.800;2022-08-01T15:22:17;2.90;;;0.20;;
55090;SDS011;40985;53.180;5.800;2022-08-01T15:24:43;4.32;;;0.30;;
55090;SDS011;40985;53.180;5.800;2022-08-01T15:27:09;5.60;;;0.30;;
55090;SDS011;40985;53.180;5.800;2022-08-01T15:29:35;5.88;;;0.40;;
55090;SDS011;40985;53.180;5.800;2022-08-01T15:32:05;3.20;;;0.30;;
55090;SDS011;40985;53.180;5.800;2022-08-01T15:34:33;3.00;;;0.20;;